sensor_id;sensor_type;location;lat;lon;timestamp;temperature;humidity
19039;DHT22;9652;49.014;12.052;2023-08-31T00:02:04;17.50;82.60
19039;DHT22;9652;49.014;12.052;2023-08-31T00:04:31;17.50;82.80
19039;DHT22;9652;49.014;12.052;2023-08-31T00:06:59;17.60;82.90
19039;DHT22;9652;49.014;12.052;2023-08-31T00:09:27;17.60;83.10
19039;DHT22;9652;49.014;12.052;2023-08-31T00:11:55;17.70;83.20
19039;DHT22;9652;49.014;12.052;2023-08-31T00:14:23;17.60;83.10
19039;DHT22;9652;49.014;12.052;2023-08-31T00:16:50;17.70;83.00
19039;DHT22;9652;49.014;12.052;2023-08-31T00:19:17;17.70;82.70
19039;DHT22;9652;49.014;12.052;2023-08-31T00:21:45;17.60;82.70
19039;DHT22;9652;49.014;12.052;2023-08-31T00:24:14;17.70;83.00
19039;DHT22;9652;49.014;12.052;2023-08-31T00:26:42;17.70;83.10
19039;DHT22;9652;49.014;12.052;2023-08-31T00:29:10;17.70;83.40
19039;DHT22;9652;49.014;12.052;2023-08-31T00:31:42;17.70;83.50
19039;DHT22;9652;49.014;12.052;2023-08-31T00:34:10;17.60;83.40
19039;DHT22;9652;49.014;12.052;2023-08-31T00:36:40;17.60;84.10
19039;DHT22;9652;49.014;12.052;2023-08-31T00:39:07;17.60;83.80
19039;DHT22;9652;49.014;12.052;2023-08-31T00:41:38;17.60;84.10
19039;DHT22;9652;49.014;12.052;2023-08-31T00:44:07;17.60;84.40
19039;DHT22;9652;49.014;12.052;2023-08-31T00:46:34;17.60;84.70
19039;DHT22;9652;49.014;12.052;2023-08-31T00:49:02;17.60;85.70
19039;DHT22;9652;49.014;12.052;2023-08-31T00:51:30;17.60;84.90
19039;DHT22;9652;49.014;12.052;2023-08-31T00:53:57;17.60;84.90
19039;DHT22;9652;49.014;12.052;2023-08-31T00:56:26;17.60;85.00
19039;DHT22;9652;49.014;12.052;2023-08-31T00:58:53;17.60;85.10
19039;DHT22;9652;49.014;12.052;2023-08-31T01:01:26;17.50;85.30
19039;DHT22;9652;49.014;12.052;2023-08-31T01:04:11;17.50;85.60
19039;DHT22;9652;49.014;12.052;2023-08-31T01:06:53;17.60;85.70
19039;DHT22;9652;49.014;12.052;2023-08-31T01:09:34;17.60;85.70
19039;DHT22;9652;49.014;12.052;2023-08-31T01:12:09;17.60;85.80
19039;DHT22;9652;49.014;12.052;2023-08-31T01:14:42;17.60;85.80
19039;DHT22;9652;49.014;12.052;2023-08-31T01:17:14;17.60;85.80
19039;DHT22;9652;49.014;12.052;2023-08-31T01:19:47;17.60;85.80
19039;DHT22;9652;49.014;12.052;2023-08-31T01:22:25;17.60;85.70
19039;DHT22;9652;49.014;12.052;2023-08-31T01:24:59;17.60;85.60
19039;DHT22;9652;49.014;12.052;2023-08-31T01:27:30;17.60;85.60
19039;DHT22;9652;49.014;12.052;2023-08-31T01:29:58;17.60;85.60
19039;DHT22;9652;49.014;12.052;2023-08-31T01:32:25;17.60;86.50
19039;DHT22;9652;49.014;12.052;2023-08-31T01:34:53;17.60;85.60
19039;DHT22;9652;49.014;12.052;2023-08-31T01:37:28;17.50;85.60
19039;DHT22;9652;49.014;12.052;2023-08-31T01:40:08;17.50;85.50
19039;DHT22;9652;49.014;12.052;2023-08-31T01:42:41;17.50;85.60
19039;DHT22;9652;49.014;12.052;2023-08-31T01:45:10;17.50;85.60
19039;DHT22;9652;49.014;12.052;2023-08-31T01:47:42;17.50;85.80
19039;DHT22;9652;49.014;12.052;2023-08-31T01:50:11;17.50;85.80
19039;DHT22;9652;49.014;12.052;2023-08-31T01:52:39;17.50;86.00
19039;DHT22;9652;49.014;12.052;2023-08-31T01:55:08;17.50;86.00
19039;DHT22;9652;49.014;12.052;2023-08-31T01:57:35;17.50;85.90
19039;DHT22;9652;49.014;12.052;2023-08-31T02:00:11;17.50;85.80
19039;DHT22;9652;49.014;12.052;2023-08-31T02:02:42;17.50;85.80
19039;DHT22;9652;49.014;12.052;2023-08-31T02:05:09;17.50;85.80
19039;DHT22;9652;49.014;12.052;2023-08-31T02:07:36;17.50;85.60
19039;DHT22;9652;49.014;12.052;2023-08-31T02:10:04;17.50;85.50
19039;DHT22;9652;49.014;12.052;2023-08-31T02:12:33;17.50;85.30
19039;DHT22;9652;49.014;12.052;2023-08-31T02:15:02;17.50;85.10
19039;DHT22;9652;49.014;12.052;2023-08-31T02:17:31;17.50;85.00
19039;DHT22;9652;49.014;12.052;2023-08-31T02:19:58;17.50;84.90
19039;DHT22;9652;49.014;12.052;2023-08-31T02:22:26;17.50;85.00
19039;DHT22;9652;49.014;12.052;2023-08-31T02:24:53;17.40;84.90
19039;DHT22;9652;49.014;12.052;2023-08-31T02:27:20;17.40;85.70
19039;DHT22;9652;49.014;12.052;2023-08-31T02:29:49;17.40;85.00
19039;DHT22;9652;49.014;12.052;2023-08-31T02:32:16;17.40;85.00
19039;DHT22;9652;49.014;12.052;2023-08-31T02:34:43;17.40;85.10
19039;DHT22;9652;49.014;12.052;2023-08-31T02:37:11;17.40;85.10
19039;DHT22;9652;49.014;12.052;2023-08-31T02:39:38;17.40;85.10
19039;DHT22;9652;49.014;12.052;2023-08-31T02:42:05;17.40;85.00
19039;DHT22;9652;49.014;12.052;2023-08-31T02:44:33;17.40;85.00
19039;DHT22;9652;49.014;12.052;2023-08-31T02:47:02;17.40;85.00
19039;DHT22;9652;49.014;12.052;2023-08-31T02:49:29;17.40;85.00
19039;DHT22;9652;49.014;12.052;2023-08-31T02:51:56;17.30;85.00
19039;DHT22;9652;49.014;12.052;2023-08-31T02:54:23;17.40;85.10
19039;DHT22;9652;49.014;12.052;2023-08-31T02:56:50;17.30;85.00
19039;DHT22;9652;49.014;12.052;2023-08-31T02:59:17;17.30;85.10
19039;DHT22;9652;49.014;12.052;2023-08-31T03:01:44;17.30;85.10
19039;DHT22;9652;49.014;12.052;2023-08-31T03:04:14;17.30;85.10
19039;DHT22;9652;49.014;12.052;2023-08-31T03:06:41;17.30;85.30
19039;DHT22;9652;49.014;12.052;2023-08-31T03:09:08;17.30;85.20
19039;DHT22;9652;49.014;12.052;2023-08-31T03:11:35;17.30;85.20
19039;DHT22;9652;49.014;12.052;2023-08-31T03:14:04;17.30;85.00
19039;DHT22;9652;49.014;12.052;2023-08-31T03:16:31;17.30;84.90
19039;DHT22;9652;49.014;12.052;2023-08-31T03:18:58;17.30;84.90
19039;DHT22;9652;49.014;12.052;2023-08-31T03:21:26;17.30;84.60
19039;DHT22;9652;49.014;12.052;2023-08-31T03:23:53;17.20;84.30
19039;DHT22;9652;49.014;12.052;2023-08-31T03:26:20;17.20;83.90
19039;DHT22;9652;49.014;12.052;2023-08-31T03:28:47;17.20;83.80
19039;DHT22;9652;49.014;12.052;2023-08-31T03:31:14;17.10;83.90
19039;DHT22;9652;49.014;12.052;2023-08-31T03:33:42;17.10;84.40
19039;DHT22;9652;49.014;12.052;2023-08-31T03:36:09;17.10;84.90
19039;DHT22;9652;49.014;12.052;2023-08-31T03:38:38;17.10;85.10
19039;DHT22;9652;49.014;12.052;2023-08-31T03:41:06;17.00;85.10
19039;DHT22;9652;49.014;12.052;2023-08-31T03:43:33;17.00;85.00
19039;DHT22;9652;49.014;12.052;2023-08-31T03:46:00;17.00;84.70
19039;DHT22;9652;49.014;12.052;2023-08-31T03:48:28;17.10;84.40
19039;DHT22;9652;49.014;12.052;2023-08-31T03:50:55;17.10;84.10
19039;DHT22;9652;49.014;12.052;2023-08-31T03:53:23;17.00;83.80
19039;DHT22;9652;49.014;12.052;2023-08-31T03:55:56;16.90;83.70
19039;DHT22;9652;49.014;12.052;2023-08-31T03:58:24;16.90;83.70
19039;DHT22;9652;49.014;12.052;2023-08-31T04:00:52;16.90;83.90
19039;DHT22;9652;49.014;12.052;2023-08-31T04:03:20;16.80;84.00
19039;DHT22;9652;49.014;12.052;2023-08-31T04:05:47;16.80;84.30
19039;DHT22;9652;49.014;12.052;2023-08-31T04:08:15;16.80;84.40
19039;DHT22;9652;49.014;12.052;2023-08-31T04:10:42;16.80;84.50
19039;DHT22;9652;49.014;12.052;2023-08-31T04:13:11;16.80;84.40
19039;DHT22;9652;49.014;12.052;2023-08-31T04:15:38;16.80;84.40
19039;DHT22;9652;49.014;12.052;2023-08-31T04:18:05;16.70;84.10
19039;DHT22;9652;49.014;12.052;2023-08-31T04:20:33;16.70;83.90
19039;DHT22;9652;49.014;12.052;2023-08-31T04:23:00;16.70;83.80
19039;DHT22;9652;49.014;12.052;2023-08-31T04:25:28;16.70;83.80
19039;DHT22;9652;49.014;12.052;2023-08-31T04:27:57;16.70;84.90
19039;DHT22;9652;49.014;12.052;2023-08-31T04:30:25;16.70;84.40
19039;DHT22;9652;49.014;12.052;2023-08-31T04:32:52;16.70;84.80
19039;DHT22;9652;49.014;12.052;2023-08-31T04:35:19;16.70;85.20
19039;DHT22;9652;49.014;12.052;2023-08-31T04:37:47;16.70;85.50
19039;DHT22;9652;49.014;12.052;2023-08-31T04:40:14;16.70;85.60
19039;DHT22;9652;49.014;12.052;2023-08-31T04:42:42;16.70;85.60
19039;DHT22;9652;49.014;12.052;2023-08-31T04:45:09;16.70;85.40
19039;DHT22;9652;49.014;12.052;2023-08-31T04:47:39;16.70;84.90
19039;DHT22;9652;49.014;12.052;2023-08-31T04:50:07;16.70;84.40
19039;DHT22;9652;49.014;12.052;2023-08-31T04:52:35;16.70;84.10
19039;DHT22;9652;49.014;12.052;2023-08-31T04:55:03;16.70;83.80
19039;DHT22;9652;49.014;12.052;2023-08-31T04:57:33;16.70;83.60
19039;DHT22;9652;49.014;12.052;2023-08-31T05:00:00;16.70;83.50
19039;DHT22;9652;49.014;12.052;2023-08-31T05:02:29;16.60;83.40
19039;DHT22;9652;49.014;12.052;2023-08-31T05:04:57;16.60;83.30
19039;DHT22;9652;49.014;12.052;2023-08-31T05:07:24;16.60;83.30
19039;DHT22;9652;49.014;12.052;2023-08-31T05:09:51;16.60;83.50
19039;DHT22;9652;49.014;12.052;2023-08-31T05:12:18;16.50;83.50
19039;DHT22;9652;49.014;12.052;2023-08-31T05:14:45;16.50;83.70
19039;DHT22;9652;49.014;12.052;2023-08-31T05:17:12;16.50;83.80
19039;DHT22;9652;49.014;12.052;2023-08-31T05:19:40;16.50;83.90
19039;DHT22;9652;49.014;12.052;2023-08-31T05:22:08;16.50;84.00
19039;DHT22;9652;49.014;12.052;2023-08-31T05:24:35;16.50;84.10
19039;DHT22;9652;49.014;12.052;2023-08-31T05:27:02;16.50;84.20
19039;DHT22;9652;49.014;12.052;2023-08-31T05:29:30;16.50;84.20
19039;DHT22;9652;49.014;12.052;2023-08-31T05:31:57;16.50;84.20
19039;DHT22;9652;49.014;12.052;2023-08-31T05:34:24;16.50;84.20
19039;DHT22;9652;49.014;12.052;2023-08-31T05:36:51;16.50;84.40
19039;DHT22;9652;49.014;12.052;2023-08-31T05:39:20;16.50;84.40
19039;DHT22;9652;49.014;12.052;2023-08-31T05:41:47;16.60;85.40
19039;DHT22;9652;49.014;12.052;2023-08-31T05:44:14;16.60;84.50
19039;DHT22;9652;49.014;12.052;2023-08-31T05:46:41;16.60;84.40
19039;DHT22;9652;49.014;12.052;2023-08-31T05:49:08;16.60;84.50
19039;DHT22;9652;49.014;12.052;2023-08-31T05:51:35;16.70;84.70
19039;DHT22;9652;49.014;12.052;2023-08-31T05:54:02;16.70;84.50
19039;DHT22;9652;49.014;12.052;2023-08-31T05:56:31;16.70;84.50
19039;DHT22;9652;49.014;12.052;2023-08-31T05:58:58;16.70;84.50
19039;DHT22;9652;49.014;12.052;2023-08-31T06:01:25;16.80;84.50
19039;DHT22;9652;49.014;12.052;2023-08-31T06:03:53;16.80;84.50
19039;DHT22;9652;49.014;12.052;2023-08-31T06:06:20;16.80;84.50
19039;DHT22;9652;49.014;12.052;2023-08-31T06:08:47;16.90;84.50
19039;DHT22;9652;49.014;12.052;2023-08-31T06:11:14;16.90;84.50
19039;DHT22;9652;49.014;12.052;2023-08-31T06:13:43;17.00;84.50
19039;DHT22;9652;49.014;12.052;2023-08-31T06:16:12;17.00;84.40
19039;DHT22;9652;49.014;12.052;2023-08-31T06:18:39;17.00;84.30
19039;DHT22;9652;49.014;12.052;2023-08-31T06:21:06;17.10;84.30
19039;DHT22;9652;49.014;12.052;2023-08-31T06:23:33;17.20;84.40
19039;DHT22;9652;49.014;12.052;2023-08-31T06:26:01;17.20;84.30
19039;DHT22;9652;49.014;12.052;2023-08-31T06:28:28;17.30;84.10
19039;DHT22;9652;49.014;12.052;2023-08-31T06:30:57;17.30;83.80
19039;DHT22;9652;49.014;12.052;2023-08-31T06:33:24;17.40;83.70
19039;DHT22;9652;49.014;12.052;2023-08-31T06:35:51;17.40;83.80
19039;DHT22;9652;49.014;12.052;2023-08-31T06:38:18;17.50;83.90
19039;DHT22;9652;49.014;12.052;2023-08-31T06:40:46;17.50;83.90
19039;DHT22;9652;49.014;12.052;2023-08-31T06:43:13;17.60;83.90
19039;DHT22;9652;49.014;12.052;2023-08-31T06:45:41;17.70;84.10
19039;DHT22;9652;49.014;12.052;2023-08-31T06:48:09;17.70;84.30
19039;DHT22;9652;49.014;12.052;2023-08-31T06:50:36;17.70;84.90
19039;DHT22;9652;49.014;12.052;2023-08-31T06:53:03;17.90;85.10
19039;DHT22;9652;49.014;12.052;2023-08-31T06:55:31;18.10;84.70
19039;DHT22;9652;49.014;12.052;2023-08-31T06:57:59;18.20;84.30
19039;DHT22;9652;49.014;12.052;2023-08-31T07:00:28;18.30;83.90
19039;DHT22;9652;49.014;12.052;2023-08-31T07:02:55;18.30;83.50
19039;DHT22;9652;49.014;12.052;2023-08-31T07:05:25;18.40;83.20
19039;DHT22;9652;49.014;12.052;2023-08-31T07:07:54;18.40;82.70
19039;DHT22;9652;49.014;12.052;2023-08-31T07:10:22;18.50;82.80
19039;DHT22;9652;49.014;12.052;2023-08-31T07:12:49;18.50;82.80
19039;DHT22;9652;49.014;12.052;2023-08-31T07:15:16;18.50;82.90
19039;DHT22;9652;49.014;12.052;2023-08-31T07:17:43;18.60;83.10
19039;DHT22;9652;49.014;12.052;2023-08-31T07:20:11;18.70;82.60
19039;DHT22;9652;49.014;12.052;2023-08-31T07:22:40;18.70;82.40
19039;DHT22;9652;49.014;12.052;2023-08-31T07:25:07;18.80;82.50
19039;DHT22;9652;49.014;12.052;2023-08-31T07:27:35;18.80;81.90
19039;DHT22;9652;49.014;12.052;2023-08-31T07:30:02;19.00;81.80
19039;DHT22;9652;49.014;12.052;2023-08-31T07:32:31;18.90;81.30
19039;DHT22;9652;49.014;12.052;2023-08-31T07:34:58;19.00;81.60
19039;DHT22;9652;49.014;12.052;2023-08-31T07:37:25;19.00;81.70
19039;DHT22;9652;49.014;12.052;2023-08-31T07:39:54;19.10;82.70
19039;DHT22;9652;49.014;12.052;2023-08-31T07:42:21;19.20;81.30
19039;DHT22;9652;49.014;12.052;2023-08-31T07:44:48;19.20;81.60
19039;DHT22;9652;49.014;12.052;2023-08-31T07:47:15;19.30;81.40
19039;DHT22;9652;49.014;12.052;2023-08-31T07:49:43;19.40;81.70
19039;DHT22;9652;49.014;12.052;2023-08-31T07:52:10;19.60;81.60
19039;DHT22;9652;49.014;12.052;2023-08-31T07:54:37;19.70;81.50
19039;DHT22;9652;49.014;12.052;2023-08-31T07:57:06;19.80;81.00
19039;DHT22;9652;49.014;12.052;2023-08-31T07:59:33;19.90;80.50
19039;DHT22;9652;49.014;12.052;2023-08-31T08:02:00;20.00;80.10
19039;DHT22;9652;49.014;12.052;2023-08-31T08:04:27;20.10;79.30
19039;DHT22;9652;49.014;12.052;2023-08-31T08:06:55;20.20;78.70
19039;DHT22;9652;49.014;12.052;2023-08-31T08:09:22;20.20;78.30
19039;DHT22;9652;49.014;12.052;2023-08-31T08:11:49;20.30;78.50
19039;DHT22;9652;49.014;12.052;2023-08-31T08:14:18;20.30;78.00
19039;DHT22;9652;49.014;12.052;2023-08-31T08:16:45;20.30;77.80
19039;DHT22;9652;49.014;12.052;2023-08-31T08:19:12;20.40;76.70
19039;DHT22;9652;49.014;12.052;2023-08-31T08:21:39;20.40;76.10
19039;DHT22;9652;49.014;12.052;2023-08-31T08:24:07;20.50;75.70
19039;DHT22;9652;49.014;12.052;2023-08-31T08:26:34;20.50;75.80
19039;DHT22;9652;49.014;12.052;2023-08-31T08:29:01;20.60;76.00
19039;DHT22;9652;49.014;12.052;2023-08-31T08:31:30;20.60;76.70
19039;DHT22;9652;49.014;12.052;2023-08-31T08:33:57;20.80;77.00
19039;DHT22;9652;49.014;12.052;2023-08-31T08:36:24;20.90;76.60
19039;DHT22;9652;49.014;12.052;2023-08-31T08:38:51;21.00;76.20
19039;DHT22;9652;49.014;12.052;2023-08-31T08:41:22;21.20;76.10
19039;DHT22;9652;49.014;12.052;2023-08-31T08:43:51;21.30;74.60
19039;DHT22;9652;49.014;12.052;2023-08-31T08:46:18;21.50;75.50
19039;DHT22;9652;49.014;12.052;2023-08-31T08:48:47;21.60;75.90
19039;DHT22;9652;49.014;12.052;2023-08-31T08:51:15;21.80;75.50
19039;DHT22;9652;49.014;12.052;2023-08-31T08:53:43;22.00;75.30
19039;DHT22;9652;49.014;12.052;2023-08-31T08:56:10;22.10;74.40
19039;DHT22;9652;49.014;12.052;2023-08-31T08:58:37;22.30;74.00
19039;DHT22;9652;49.014;12.052;2023-08-31T09:01:07;22.40;73.90
19039;DHT22;9652;49.014;12.052;2023-08-31T09:03:35;22.50;72.90
19039;DHT22;9652;49.014;12.052;2023-08-31T09:06:03;22.60;71.70
19039;DHT22;9652;49.014;12.052;2023-08-31T09:08:33;22.60;71.00
19039;DHT22;9652;49.014;12.052;2023-08-31T09:11:02;22.70;70.40
19039;DHT22;9652;49.014;12.052;2023-08-31T09:13:30;22.70;69.10
19039;DHT22;9652;49.014;12.052;2023-08-31T09:15:59;22.80;68.90
19039;DHT22;9652;49.014;12.052;2023-08-31T09:18:28;22.80;68.60
19039;DHT22;9652;49.014;12.052;2023-08-31T09:20:57;22.80;68.30
19039;DHT22;9652;49.014;12.052;2023-08-31T09:23:27;22.90;68.20
19039;DHT22;9652;49.014;12.052;2023-08-31T09:25:56;22.80;66.50
19039;DHT22;9652;49.014;12.052;2023-08-31T09:28:24;22.90;67.40
19039;DHT22;9652;49.014;12.052;2023-08-31T09:31:05;22.90;67.40
19039;DHT22;9652;49.014;12.052;2023-08-31T09:33:34;23.00;65.90
19039;DHT22;9652;49.014;12.052;2023-08-31T09:36:03;23.00;65.70
19039;DHT22;9652;49.014;12.052;2023-08-31T09:38:41;23.00;66.10
19039;DHT22;9652;49.014;12.052;2023-08-31T09:41:09;23.00;64.30
19039;DHT22;9652;49.014;12.052;2023-08-31T09:43:36;23.00;66.10
19039;DHT22;9652;49.014;12.052;2023-08-31T09:46:04;23.10;65.70
19039;DHT22;9652;49.014;12.052;2023-08-31T09:48:31;23.10;66.20
19039;DHT22;9652;49.014;12.052;2023-08-31T09:51:03;23.30;66.40
19039;DHT22;9652;49.014;12.052;2023-08-31T09:53:31;23.40;65.10
19039;DHT22;9652;49.014;12.052;2023-08-31T09:56:00;23.50;66.10
19039;DHT22;9652;49.014;12.052;2023-08-31T09:58:28;23.50;65.50
19039;DHT22;9652;49.014;12.052;2023-08-31T10:00:56;23.60;65.60
19039;DHT22;9652;49.014;12.052;2023-08-31T10:03:25;23.70;65.30
19039;DHT22;9652;49.014;12.052;2023-08-31T10:05:54;23.60;64.80
19039;DHT22;9652;49.014;12.052;2023-08-31T10:08:22;23.60;64.60
19039;DHT22;9652;49.014;12.052;2023-08-31T10:10:53;23.70;64.80
19039;DHT22;9652;49.014;12.052;2023-08-31T10:13:22;23.60;64.60
19039;DHT22;9652;49.014;12.052;2023-08-31T10:15:50;23.60;64.50
19039;DHT22;9652;49.014;12.052;2023-08-31T10:18:19;23.70;63.60
19039;DHT22;9652;49.014;12.052;2023-08-31T10:20:46;23.60;63.30
19039;DHT22;9652;49.014;12.052;2023-08-31T10:23:14;23.60;63.30
19039;DHT22;9652;49.014;12.052;2023-08-31T10:26:00;23.50;63.40
19039;DHT22;9652;49.014;12.052;2023-08-31T10:28:39;23.50;61.60
19039;DHT22;9652;49.014;12.052;2023-08-31T10:31:08;23.50;62.30
19039;DHT22;9652;49.014;12.052;2023-08-31T10:33:40;23.50;63.90
19039;DHT22;9652;49.014;12.052;2023-08-31T10:36:13;23.50;63.90
19039;DHT22;9652;49.014;12.052;2023-08-31T10:38:42;23.50;63.80
19039;DHT22;9652;49.014;12.052;2023-08-31T10:41:20;23.60;64.40
19039;DHT22;9652;49.014;12.052;2023-08-31T10:43:51;23.60;62.60
19039;DHT22;9652;49.014;12.052;2023-08-31T10:46:25;23.60;63.10
19039;DHT22;9652;49.014;12.052;2023-08-31T10:48:55;23.70;62.70
19039;DHT22;9652;49.014;12.052;2023-08-31T10:51:25;23.60;63.60
19039;DHT22;9652;49.014;12.052;2023-08-31T10:54:04;23.70;63.10
19039;DHT22;9652;49.014;12.052;2023-08-31T10:56:33;23.70;61.20
19039;DHT22;9652;49.014;12.052;2023-08-31T10:59:01;23.80;63.10
19039;DHT22;9652;49.014;12.052;2023-08-31T11:01:51;23.80;62.30
19039;DHT22;9652;49.014;12.052;2023-08-31T11:04:20;23.80;59.80
19039;DHT22;9652;49.014;12.052;2023-08-31T11:06:48;23.80;62.10
19039;DHT22;9652;49.014;12.052;2023-08-31T11:09:19;23.80;62.10
19039;DHT22;9652;49.014;12.052;2023-08-31T11:11:47;23.90;61.40
19039;DHT22;9652;49.014;12.052;2023-08-31T11:14:16;23.90;62.00
19039;DHT22;9652;49.014;12.052;2023-08-31T11:16:44;24.00;61.30
19039;DHT22;9652;49.014;12.052;2023-08-31T11:19:12;24.00;61.00
19039;DHT22;9652;49.014;12.052;2023-08-31T11:21:39;24.00;60.90
19039;DHT22;9652;49.014;12.052;2023-08-31T11:24:07;24.00;60.70
19039;DHT22;9652;49.014;12.052;2023-08-31T11:26:35;24.00;59.80
19039;DHT22;9652;49.014;12.052;2023-08-31T11:29:06;24.00;59.70
19039;DHT22;9652;49.014;12.052;2023-08-31T11:31:39;23.90;59.50
19039;DHT22;9652;49.014;12.052;2023-08-31T11:34:06;23.80;59.20
19039;DHT22;9652;49.014;12.052;2023-08-31T11:36:33;23.80;59.80
19039;DHT22;9652;49.014;12.052;2023-08-31T11:39:01;23.80;59.60
19039;DHT22;9652;49.014;12.052;2023-08-31T11:41:31;23.60;59.60
19039;DHT22;9652;49.014;12.052;2023-08-31T11:44:01;23.60;59.70
19039;DHT22;9652;49.014;12.052;2023-08-31T11:46:30;23.60;59.50
19039;DHT22;9652;49.014;12.052;2023-08-31T11:49:00;23.50;59.50
19039;DHT22;9652;49.014;12.052;2023-08-31T11:51:30;23.50;59.50
19039;DHT22;9652;49.014;12.052;2023-08-31T11:53:58;23.50;59.80
19039;DHT22;9652;49.014;12.052;2023-08-31T11:56:25;23.60;60.10
19039;DHT22;9652;49.014;12.052;2023-08-31T11:58:52;23.50;60.40
19039;DHT22;9652;49.014;12.052;2023-08-31T12:01:21;23.60;61.60
19039;DHT22;9652;49.014;12.052;2023-08-31T12:03:49;23.70;61.20
19039;DHT22;9652;49.014;12.052;2023-08-31T12:06:17;23.90;59.90
19039;DHT22;9652;49.014;12.052;2023-08-31T12:08:45;24.00;58.80
19039;DHT22;9652;49.014;12.052;2023-08-31T12:11:12;24.00;57.90
19039;DHT22;9652;49.014;12.052;2023-08-31T12:13:40;24.00;57.50
19039;DHT22;9652;49.014;12.052;2023-08-31T12:16:14;24.00;57.10
19039;DHT22;9652;49.014;12.052;2023-08-31T12:18:43;23.80;56.30
19039;DHT22;9652;49.014;12.052;2023-08-31T12:21:11;23.70;56.90
19039;DHT22;9652;49.014;12.052;2023-08-31T12:23:39;23.50;57.60
19039;DHT22;9652;49.014;12.052;2023-08-31T12:26:07;23.40;57.00
19039;DHT22;9652;49.014;12.052;2023-08-31T12:28:34;23.30;57.30
19039;DHT22;9652;49.014;12.052;2023-08-31T12:31:02;23.20;57.50
19039;DHT22;9652;49.014;12.052;2023-08-31T12:33:30;23.20;57.70
19039;DHT22;9652;49.014;12.052;2023-08-31T12:35:57;23.20;57.80
19039;DHT22;9652;49.014;12.052;2023-08-31T12:38:24;23.20;57.60
19039;DHT22;9652;49.014;12.052;2023-08-31T12:40:52;23.20;57.70
19039;DHT22;9652;49.014;12.052;2023-08-31T12:43:20;23.20;57.50
19039;DHT22;9652;49.014;12.052;2023-08-31T12:45:47;23.20;57.50
19039;DHT22;9652;49.014;12.052;2023-08-31T12:48:14;23.30;57.60
19039;DHT22;9652;49.014;12.052;2023-08-31T12:50:41;23.30;57.20
19039;DHT22;9652;49.014;12.052;2023-08-31T12:53:08;23.40;56.80
19039;DHT22;9652;49.014;12.052;2023-08-31T12:55:35;23.40;56.20
19039;DHT22;9652;49.014;12.052;2023-08-31T12:58:04;23.40;56.40
19039;DHT22;9652;49.014;12.052;2023-08-31T13:00:31;23.30;56.00
19039;DHT22;9652;49.014;12.052;2023-08-31T13:02:59;23.30;56.40
19039;DHT22;9652;49.014;12.052;2023-08-31T13:05:27;23.30;56.40
19039;DHT22;9652;49.014;12.052;2023-08-31T13:07:54;23.40;56.30
19039;DHT22;9652;49.014;12.052;2023-08-31T13:10:21;23.40;56.90
19039;DHT22;9652;49.014;12.052;2023-08-31T13:12:49;23.50;56.80
19039;DHT22;9652;49.014;12.052;2023-08-31T13:15:18;23.80;57.30
19039;DHT22;9652;49.014;12.052;2023-08-31T13:17:45;24.00;56.80
19039;DHT22;9652;49.014;12.052;2023-08-31T13:20:12;24.20;56.90
19039;DHT22;9652;49.014;12.052;2023-08-31T13:22:39;24.40;56.40
19039;DHT22;9652;49.014;12.052;2023-08-31T13:25:07;24.70;56.20
19039;DHT22;9652;49.014;12.052;2023-08-31T13:27:34;24.90;55.10
19039;DHT22;9652;49.014;12.052;2023-08-31T13:30:02;25.10;55.00
19039;DHT22;9652;49.014;12.052;2023-08-31T13:32:32;25.20;54.80
19039;DHT22;9652;49.014;12.052;2023-08-31T13:35:00;25.40;53.80
19039;DHT22;9652;49.014;12.052;2023-08-31T13:37:28;25.50;54.10
19039;DHT22;9652;49.014;12.052;2023-08-31T13:39:55;25.60;54.20
19039;DHT22;9652;49.014;12.052;2023-08-31T13:42:22;25.80;54.10
19039;DHT22;9652;49.014;12.052;2023-08-31T13:44:49;25.90;54.10
19039;DHT22;9652;49.014;12.052;2023-08-31T13:47:16;26.00;54.00
19039;DHT22;9652;49.014;12.052;2023-08-31T13:49:45;26.20;53.60
19039;DHT22;9652;49.014;12.052;2023-08-31T13:52:12;26.30;53.90
19039;DHT22;9652;49.014;12.052;2023-08-31T13:54:39;26.50;55.10
19039;DHT22;9652;49.014;12.052;2023-08-31T13:57:06;26.70;55.00
19039;DHT22;9652;49.014;12.052;2023-08-31T13:59:33;27.10;54.90
19039;DHT22;9652;49.014;12.052;2023-08-31T14:02:00;27.30;53.90
19039;DHT22;9652;49.014;12.052;2023-08-31T14:04:29;27.60;52.30
19039;DHT22;9652;49.014;12.052;2023-08-31T14:06:57;27.80;51.40
19039;DHT22;9652;49.014;12.052;2023-08-31T14:09:25;27.80;49.40
19039;DHT22;9652;49.014;12.052;2023-08-31T14:11:52;27.80;49.70
19039;DHT22;9652;49.014;12.052;2023-08-31T14:14:19;27.90;48.60
19039;DHT22;9652;49.014;12.052;2023-08-31T14:16:47;27.80;49.00
19039;DHT22;9652;49.014;12.052;2023-08-31T14:19:14;27.80;48.50
19039;DHT22;9652;49.014;12.052;2023-08-31T14:21:42;27.80;48.90
19039;DHT22;9652;49.014;12.052;2023-08-31T14:24:10;27.80;48.30
19039;DHT22;9652;49.014;12.052;2023-08-31T14:26:37;27.80;47.50
19039;DHT22;9652;49.014;12.052;2023-08-31T14:29:04;27.70;47.60
19039;DHT22;9652;49.014;12.052;2023-08-31T14:31:31;27.60;47.90
19039;DHT22;9652;49.014;12.052;2023-08-31T14:33:58;27.60;48.10
19039;DHT22;9652;49.014;12.052;2023-08-31T14:36:25;27.60;47.50
19039;DHT22;9652;49.014;12.052;2023-08-31T14:38:53;27.40;47.80
19039;DHT22;9652;49.014;12.052;2023-08-31T14:41:21;27.40;47.10
19039;DHT22;9652;49.014;12.052;2023-08-31T14:43:48;27.40;47.40
19039;DHT22;9652;49.014;12.052;2023-08-31T14:46:15;27.40;47.80
19039;DHT22;9652;49.014;12.052;2023-08-31T14:48:43;27.50;47.30
19039;DHT22;9652;49.014;12.052;2023-08-31T14:51:10;27.50;47.20
19039;DHT22;9652;49.014;12.052;2023-08-31T14:53:37;27.50;47.50
19039;DHT22;9652;49.014;12.052;2023-08-31T14:56:05;27.70;47.50
19039;DHT22;9652;49.014;12.052;2023-08-31T14:58:35;27.70;47.30
19039;DHT22;9652;49.014;12.052;2023-08-31T15:01:02;27.80;46.50
19039;DHT22;9652;49.014;12.052;2023-08-31T15:03:29;27.90;45.80
19039;DHT22;9652;49.014;12.052;2023-08-31T15:05:56;27.90;45.50
19039;DHT22;9652;49.014;12.052;2023-08-31T15:08:35;27.70;44.90
19039;DHT22;9652;49.014;12.052;2023-08-31T15:11:03;27.60;44.30
19039;DHT22;9652;49.014;12.052;2023-08-31T15:13:30;27.60;45.80
19039;DHT22;9652;49.014;12.052;2023-08-31T15:15:59;27.50;45.90
19039;DHT22;9652;49.014;12.052;2023-08-31T15:18:26;27.60;45.90
19039;DHT22;9652;49.014;12.052;2023-08-31T15:20:53;27.60;45.80
19039;DHT22;9652;49.014;12.052;2023-08-31T15:23:21;27.60;45.90
19039;DHT22;9652;49.014;12.052;2023-08-31T15:25:48;27.60;45.80
19039;DHT22;9652;49.014;12.052;2023-08-31T15:28:15;27.60;46.10
19039;DHT22;9652;49.014;12.052;2023-08-31T15:30:43;27.70;46.00
19039;DHT22;9652;49.014;12.052;2023-08-31T15:33:11;27.80;45.60
19039;DHT22;9652;49.014;12.052;2023-08-31T15:35:39;27.80;45.20
19039;DHT22;9652;49.014;12.052;2023-08-31T15:38:06;27.80;45.50